createdAt,value
2022-08-10T00:01:51.229Z,58.12
2022-08-10T00:04:22.268Z,57.97
2022-08-10T00:06:53.899Z,57.75
2022-08-10T00:09:23.545Z,58.59
2022-08-10T00:11:52.144Z,58.51
2022-08-10T00:14:20.624Z,58.72
2022-08-10T00:16:49.252Z,58.57
2022-08-10T00:19:18.329Z,58.74
2022-08-10T00:21:47.633Z,58.76
2022-08-10T00:24:17.805Z,58.15
2022-08-10T00:27:51.708Z,59.01
2022-08-10T00:29:34.726Z,58.18
2022-08-10T00:32:04.641Z,58.29
2022-08-10T00:34:34.619Z,58.46
2022-08-10T00:37:03.046Z,58.15
2022-08-10T00:39:35.951Z,58.33
2022-08-10T00:42:08.266Z,59.16
2022-08-10T00:44:37.956Z,58.48
2022-08-10T00:47:06.869Z,58.44
2022-08-10T00:49:38.851Z,59.04
2022-08-10T00:52:08.198Z,58.91
2022-08-10T00:54:38.545Z,58.72
2022-08-10T00:57:17.814Z,58.96
2022-08-10T00:59:59.408Z,59.25
2022-08-10T01:02:30.836Z,59.44
2022-08-10T01:05:02.441Z,59.18
2022-08-10T01:07:46.801Z,59.33
2022-08-10T01:10:26.913Z,60.00
2022-08-10T01:13:02.243Z,59.84
2022-08-10T01:15:35.377Z,60.38
2022-08-10T01:18:07.445Z,60.71
2022-08-10T01:20:43.258Z,61.11
2022-08-10T01:23:41.065Z,60.20
2022-08-10T01:26:43.358Z,60.46
2022-08-10T01:29:45.064Z,61.23
2022-08-10T01:32:18.785Z,61.45
2022-08-10T01:34:51.979Z,61.10
2022-08-10T01:37:26.038Z,61.14
2022-08-10T01:39:59.806Z,61.33
2022-08-10T01:42:33.842Z,61.34
2022-08-10T01:45:06.000Z,61.65
2022-08-10T01:47:57.962Z,61.60
2022-08-10T01:50:30.895Z,61.71
2022-08-10T01:53:04.965Z,61.91
2022-08-10T01:55:34.262Z,61.99
2022-08-10T01:58:05.679Z,61.59
2022-08-10T02:00:36.273Z,60.98
2022-08-10T02:03:08.526Z,61.84
2022-08-10T02:05:39.953Z,61.94
2022-08-10T02:08:12.746Z,62.16
2022-08-10T02:10:44.017Z,62.34
2022-08-10T02:13:16.095Z,62.39
2022-08-10T02:16:01.427Z,62.01
2022-08-10T02:18:32.730Z,61.96
2022-08-10T02:21:04.989Z,61.41
2022-08-10T02:23:35.701Z,61.29
2022-08-10T02:26:05.146Z,61.47
2022-08-10T02:28:36.489Z,61.89
2022-08-10T02:31:11.544Z,62.06
2022-08-10T02:33:56.312Z,61.99
2022-08-10T02:36:29.041Z,62.12
2022-08-10T02:39:01.373Z,61.96
2022-08-10T02:45:14.108Z,62.06
2022-08-10T02:45:20.483Z,61.96
2022-08-10T02:47:23.290Z,62.63
2022-08-10T02:50:00.564Z,63.04
2022-08-10T02:52:34.927Z,62.86
2022-08-10T02:55:18.315Z,63.77
2022-08-10T02:58:17.147Z,64.29
2022-08-10T03:00:44.567Z,63.65
2022-08-10T03:03:18.968Z,63.43
2022-08-10T03:05:50.423Z,63.78
2022-08-10T03:08:22.587Z,63.43
2022-08-10T03:10:52.141Z,63.85
2022-08-10T03:13:21.735Z,64.24
2022-08-10T03:15:51.784Z,63.54
2022-08-10T03:18:22.779Z,63.65
2022-08-10T03:20:54.289Z,63.32
2022-08-10T03:23:25.279Z,63.45
2022-08-10T03:25:57.518Z,63.56
2022-08-10T03:28:28.833Z,63.48
2022-08-10T03:30:59.345Z,63.60
2022-08-10T03:33:31.446Z,63.80
2022-08-10T03:36:41.445Z,64.22
2022-08-10T03:38:52.586Z,64.41
2022-08-10T03:41:25.749Z,64.07
2022-08-10T03:43:59.500Z,63.85
2022-08-10T03:46:29.651Z,64.85
2022-08-10T03:49:01.865Z,64.29
2022-08-10T03:51:32.214Z,64.41
2022-08-10T03:54:05.590Z,64.27
2022-08-10T03:56:37.848Z,64.33
2022-08-10T03:59:07.179Z,64.11
2022-08-10T04:02:44.576Z,63.82
2022-08-10T04:04:25.112Z,63.45
2022-08-10T04:06:56.517Z,63.28
2022-08-10T04:09:42.685Z,62.92
2022-08-10T04:12:15.778Z,63.30
2022-08-10T04:14:49.657Z,62.72
2022-08-10T04:17:18.554Z,63.25
2022-08-10T04:20:10.156Z,62.92
2022-08-10T04:22:41.158Z,62.74
2022-08-10T04:25:11.530Z,63.16
2022-08-10T04:27:40.169Z,62.71
2022-08-10T04:30:09.766Z,62.56
2022-08-10T04:32:39.449Z,61.81
2022-08-10T04:35:11.224Z,61.68
2022-08-10T04:37:47.282Z,61.27
2022-08-10T04:40:28.607Z,61.12
2022-08-10T04:43:03.323Z,60.90
2022-08-10T04:45:50.423Z,59.78
2022-08-10T04:48:40.444Z,59.48
2022-08-10T04:51:17.045Z,59.21
2022-08-10T04:54:06.124Z,58.95
2022-08-10T04:56:40.132Z,59.92
2022-08-10T04:59:10.053Z,62.94
2022-08-10T05:02:28.531Z,63.01
2022-08-10T05:04:35.840Z,62.16
2022-08-10T05:07:09.380Z,61.41
2022-08-10T05:10:01.100Z,60.66
2022-08-10T05:12:28.398Z,59.89
2022-08-10T05:14:56.996Z,58.52
2022-08-10T05:17:25.433Z,58.42
2022-08-10T05:20:04.046Z,58.18
2022-08-10T05:22:39.508Z,56.83
2022-08-10T05:25:12.605Z,56.58
2022-08-10T05:27:41.920Z,55.84
2022-08-10T05:30:13.418Z,55.57
2022-08-10T05:32:56.870Z,55.30
2022-08-10T05:35:52.372Z,54.68
2022-08-10T05:38:21.683Z,54.95
2022-08-10T05:40:51.623Z,55.15
2022-08-10T05:43:22.102Z,55.84
2022-08-10T05:46:19.013Z,55.41
2022-08-10T05:48:58.693Z,55.62
2022-08-10T05:51:29.904Z,55.65
2022-08-10T05:54:04.933Z,55.38
2022-08-10T05:56:54.211Z,54.70
2022-08-10T06:00:10.886Z,54.27
2022-08-10T06:02:30.639Z,54.54
2022-08-10T06:05:05.043Z,53.21
2022-08-10T06:07:33.899Z,52.83
2022-08-10T06:10:03.957Z,52.02
2022-08-10T06:12:54.442Z,51.10
2022-08-10T06:15:51.713Z,50.50
2022-08-10T06:18:15.513Z,49.54
2022-08-10T06:20:44.268Z,49.51
2022-08-10T06:23:13.673Z,49.98
2022-08-10T06:26:10.903Z,48.63
2022-08-10T06:28:35.924Z,48.52
2022-08-10T06:31:06.498Z,48.39
2022-08-10T06:33:39.346Z,47.92
2022-08-10T06:36:10.634Z,47.95
2022-08-10T06:38:40.545Z,47.33
2022-08-10T06:41:16.839Z,47.76
2022-08-10T06:43:55.717Z,45.67
2022-08-10T06:46:25.951Z,45.14
2022-08-10T06:48:58.401Z,45.41
2022-08-10T06:51:30.916Z,44.52
2022-08-10T06:54:02.485Z,44.10
2022-08-10T06:56:37.414Z,43.03
2022-08-10T06:59:21.968Z,41.94
2022-08-10T07:01:55.870Z,40.66
2022-08-10T07:04:32.207Z,31.98
2022-08-10T07:07:05.265Z,22.87
2022-08-10T07:09:36.274Z,20.40
2022-08-10T07:12:09.096Z,20.00
2022-08-10T07:14:47.072Z,20.65
2022-08-10T07:17:18.674Z,17.44
2022-08-10T07:19:52.165Z,16.10
2022-08-10T07:23:27.399Z,13.65
2022-08-10T07:25:16.242Z,16.23
2022-08-10T07:28:00.859Z,22.34
2022-08-10T07:30:35.034Z,22.20
2022-08-10T07:33:07.026Z,21.86
2022-08-10T07:35:42.563Z,22.01
2022-08-10T07:38:18.212Z,20.39
2022-08-10T07:40:49.318Z,19.53
2022-08-10T07:43:19.306Z,19.67
2022-08-10T07:45:50.547Z,16.62
2022-08-10T07:48:23.765Z,12.93
2022-08-10T07:50:55.157Z,17.16
2022-08-10T07:53:27.536Z,16.47
2022-08-10T07:56:04.548Z,15.59
2022-08-10T07:58:46.120Z,16.07
2022-08-10T08:01:22.305Z,20.96
2022-08-10T08:04:11.004Z,19.70
2022-08-10T08:06:41.580Z,18.20
2022-08-10T08:09:11.644Z,17.04
2022-08-10T08:11:42.566Z,16.10
2022-08-10T08:14:12.151Z,17.15
2022-08-10T08:16:45.133Z,15.45
2022-08-10T08:19:35.526Z,14.15
2022-08-10T08:24:07.235Z,14.57
2022-08-10T08:24:53.330Z,14.98
2022-08-10T08:27:22.763Z,14.68
2022-08-10T08:29:53.117Z,13.62
2022-08-10T08:32:26.799Z,17.09
2022-08-10T08:34:58.945Z,15.55
2022-08-10T08:38:29.176Z,15.98
2022-08-10T08:40:24.595Z,19.72
2022-08-10T08:43:25.507Z,19.94
2022-08-10T08:46:19.555Z,21.31
2022-08-10T08:49:09.707Z,20.43
2022-08-10T08:52:16.911Z,20.45
2022-08-10T08:54:47.841Z,17.49
2022-08-10T08:57:49.149Z,17.71
2022-08-10T09:00:20.012Z,16.08
2022-08-10T09:03:11.524Z,13.87
2022-08-10T09:05:58.681Z,14.83
2022-08-10T09:08:42.372Z,16.90
2022-08-10T09:11:25.615Z,13.93
2022-08-10T09:14:02.232Z,14.65
2022-08-10T09:16:43.938Z,16.16
2022-08-10T09:19:36.685Z,15.21
2022-08-10T09:22:18.284Z,17.59
2022-08-10T09:24:55.074Z,21.14
2022-08-10T09:27:26.446Z,23.34
2022-08-10T09:29:56.810Z,24.06
2022-08-10T09:36:16.837Z,20.57
2022-08-10T09:36:20.167Z,21.04
2022-08-10T09:38:29.906Z,18.20
2022-08-10T09:41:12.308Z,14.84
2022-08-10T09:43:52.500Z,17.17
2022-08-10T09:46:41.140Z,18.23
2022-08-10T09:49:18.522Z,18.44
2022-08-10T09:51:56.178Z,16.32
2022-08-10T09:54:40.688Z,17.09
2022-08-10T09:57:51.744Z,16.83
2022-08-10T10:00:11.552Z,14.50
2022-08-10T10:02:50.842Z,13.73
2022-08-10T10:05:52.224Z,19.19
2022-08-10T10:08:33.546Z,18.67
2022-08-10T10:11:13.225Z,17.58
2022-08-10T10:14:02.456Z,17.33
2022-08-10T10:16:45.109Z,18.38
2022-08-10T10:19:28.527Z,18.00
2022-08-10T10:22:08.234Z,17.87
2022-08-10T10:24:42.720Z,16.26
2022-08-10T10:27:24.815Z,15.21
2022-08-10T10:30:00.728Z,16.12
2022-08-10T10:32:50.360Z,16.67
2022-08-10T10:35:28.060Z,16.09
2022-08-10T10:38:03.222Z,17.02
2022-08-10T10:40:43.420Z,17.69
2022-08-10T10:43:27.325Z,19.72
2022-08-10T10:46:13.114Z,19.13
2022-08-10T10:48:53.789Z,17.70
2022-08-10T10:51:27.765Z,17.31
2022-08-10T10:54:05.886Z,18.85
2022-08-10T10:56:43.751Z,18.95
2022-08-10T10:59:53.651Z,18.45
2022-08-10T11:02:26.118Z,19.55
2022-08-10T11:05:03.887Z,19.53
2022-08-10T11:07:39.342Z,19.79
2022-08-10T11:10:32.848Z,19.44
2022-08-10T11:14:25.673Z,19.80
2022-08-10T11:16:12.386Z,21.34
2022-08-10T11:18:55.635Z,20.69
2022-08-10T11:21:34.393Z,20.73
2022-08-10T11:24:48.419Z,20.00
2022-08-10T11:27:03.542Z,21.70
2022-08-10T11:29:41.488Z,23.43
2022-08-10T11:32:21.221Z,24.21
2022-08-10T11:35:10.290Z,22.57
2022-08-10T11:38:31.957Z,21.59
2022-08-10T11:40:40.413Z,21.69
2022-08-10T11:43:14.425Z,22.49
2022-08-10T11:45:52.260Z,22.81
2022-08-10T11:48:53.415Z,25.11
2022-08-10T11:51:28.015Z,24.66
2022-08-10T11:54:03.146Z,25.72
2022-08-10T11:56:39.846Z,25.35
2022-08-10T11:59:25.641Z,27.88
2022-08-10T12:01:54.405Z,25.64
2022-08-10T12:04:25.657Z,25.47
2022-08-10T12:06:56.245Z,24.58
2022-08-10T12:10:11.389Z,24.20
2022-08-10T12:12:17.275Z,22.89
2022-08-10T12:14:52.599Z,23.70
2022-08-10T12:17:26.595Z,25.37
2022-08-10T12:20:03.972Z,25.64
2022-08-10T12:22:37.495Z,25.78
2022-08-10T12:25:10.314Z,23.96
2022-08-10T12:27:43.249Z,24.40
2022-08-10T12:30:16.013Z,24.67
2022-08-10T12:32:50.352Z,24.06
2022-08-10T12:35:26.857Z,23.14
2022-08-10T12:38:07.123Z,23.15
2022-08-10T12:40:43.373Z,25.07
2022-08-10T12:44:04.884Z,26.14
2022-08-10T12:46:08.380Z,25.94
2022-08-10T12:48:40.625Z,26.76
2022-08-10T12:51:16.090Z,26.69
2022-08-10T12:53:51.442Z,27.43
2022-08-10T12:56:26.604Z,27.52
2022-08-10T12:59:00.117Z,27.69
2022-08-10T13:02:07.481Z,27.07
2022-08-10T13:04:29.391Z,27.45
2022-08-10T13:07:01.870Z,27.25
2022-08-10T13:09:30.522Z,26.06
2022-08-10T13:12:38.956Z,24.57
2022-08-10T13:14:55.985Z,23.25
2022-08-10T13:17:39.020Z,24.03
2022-08-10T13:20:19.255Z,24.31
2022-08-10T13:22:50.704Z,21.95
2022-08-10T13:25:23.468Z,22.12
2022-08-10T13:28:00.971Z,21.70
2022-08-10T13:30:44.160Z,21.84
2022-08-10T13:34:40.549Z,20.62
2022-08-10T13:36:16.234Z,22.31
2022-08-10T13:38:48.884Z,21.49
2022-08-10T13:41:18.214Z,23.82
2022-08-10T13:43:52.214Z,24.46
2022-08-10T13:46:23.493Z,25.23
2022-08-10T13:48:53.439Z,26.10
2022-08-10T13:51:54.535Z,26.23
2022-08-10T13:54:19.083Z,25.79
2022-08-10T13:56:49.926Z,26.79
2022-08-10T13:59:20.463Z,27.47
2022-08-10T14:01:51.099Z,27.06
2022-08-10T14:04:20.153Z,27.46
2022-08-10T14:06:55.641Z,25.98
2022-08-10T14:09:32.271Z,24.24
2022-08-10T14:12:00.677Z,23.01
2022-08-10T14:14:30.309Z,23.27
2022-08-10T14:16:59.821Z,23.27
2022-08-10T14:19:30.466Z,24.20
2022-08-10T14:21:58.949Z,23.14
2022-08-10T14:24:32.838Z,20.85
2022-08-10T14:27:06.038Z,21.02
2022-08-10T14:29:40.706Z,22.08
2022-08-10T14:32:12.118Z,20.87
2022-08-10T14:36:16.027Z,23.33
2022-08-10T14:37:38.301Z,24.38
2022-08-10T14:40:14.181Z,24.80
2022-08-10T14:42:47.005Z,26.08
2022-08-10T14:45:23.179Z,25.75
2022-08-10T14:47:59.381Z,26.30
2022-08-10T14:50:33.504Z,24.60
2022-08-10T14:53:09.285Z,23.14
2022-08-10T14:55:58.609Z,23.38
2022-08-10T14:58:31.759Z,22.62
2022-08-10T15:01:00.878Z,20.88
2022-08-10T15:03:59.379Z,20.64
2022-08-10T15:06:30.968Z,22.46
2022-08-10T15:09:05.059Z,22.44
2022-08-10T15:12:14.033Z,22.18
2022-08-10T15:14:43.071Z,24.27
2022-08-10T15:17:14.515Z,24.75
2022-08-10T15:20:02.803Z,25.98
2022-08-10T15:22:38.800Z,26.60
2022-08-10T15:25:18.057Z,27.39
2022-08-10T15:27:53.455Z,28.49
2022-08-10T15:30:30.567Z,27.81
2022-08-10T15:34:02.905Z,28.75
2022-08-10T15:36:32.893Z,28.30
2022-08-10T15:39:05.665Z,26.77
2022-08-10T15:41:57.433Z,25.77
2022-08-10T15:44:36.796Z,25.09
2022-08-10T15:47:09.197Z,24.57
2022-08-10T15:49:45.663Z,24.39
2022-08-10T15:52:39.084Z,23.98
2022-08-10T15:55:43.571Z,24.04
2022-08-10T15:58:06.852Z,23.20
2022-08-10T16:00:40.754Z,23.68
2022-08-10T16:03:14.538Z,22.58
2022-08-10T16:06:01.563Z,24.04
2022-08-10T16:08:56.031Z,23.40
2022-08-10T16:11:37.587Z,22.68
2022-08-10T16:14:11.548Z,23.19
2022-08-10T16:16:42.584Z,23.37
2022-08-10T16:19:23.825Z,23.46
2022-08-10T16:21:57.300Z,23.87
2022-08-10T16:24:26.922Z,24.21
2022-08-10T16:26:55.843Z,24.10
2022-08-10T16:29:27.042Z,23.18
2022-08-10T16:31:59.821Z,23.45
2022-08-10T16:34:32.411Z,23.83
2022-08-10T16:37:03.933Z,24.45
2022-08-10T16:39:58.008Z,23.76
2022-08-10T16:42:28.401Z,25.52
2022-08-10T16:45:01.576Z,25.41
2022-08-10T16:47:33.457Z,25.60
2022-08-10T16:50:05.047Z,25.51
2022-08-10T16:52:34.534Z,25.16
2022-08-10T16:55:23.763Z,25.86
2022-08-10T16:57:55.580Z,26.12
2022-08-10T17:00:24.857Z,26.29
2022-08-10T17:02:59.182Z,26.40
2022-08-10T17:06:01.540Z,26.52
2022-08-10T17:08:24.107Z,25.82
2022-08-10T17:10:56.452Z,26.93
2022-08-10T17:13:27.649Z,26.73
2022-08-10T17:16:00.092Z,26.95
2022-08-10T17:18:30.784Z,26.74
2022-08-10T17:21:06.440Z,26.44
2022-08-10T17:23:39.022Z,26.57
2022-08-10T17:26:11.777Z,27.72
2022-08-10T17:28:44.972Z,27.93
2022-08-10T17:31:53.963Z,28.59
2022-08-10T17:34:20.391Z,28.58
2022-08-10T17:36:52.422Z,29.02
2022-08-10T17:39:23.935Z,29.73
2022-08-10T17:41:53.881Z,29.75
2022-08-10T17:44:22.973Z,30.74
2022-08-10T17:46:52.514Z,30.73
2022-08-10T17:49:22.119Z,30.60
2022-08-10T17:51:54.834Z,30.78
2022-08-10T17:54:29.211Z,31.42
2022-08-10T17:57:00.553Z,31.37
2022-08-10T17:59:31.218Z,32.04
2022-08-10T18:02:04.330Z,33.14
2022-08-10T18:04:41.802Z,32.96
2022-08-10T18:07:12.657Z,32.85
2022-08-10T18:09:44.528Z,33.76
2022-08-10T18:12:17.729Z,35.00
2022-08-10T18:14:51.244Z,35.53
2022-08-10T18:17:23.188Z,36.20
2022-08-10T18:19:57.814Z,36.76
2022-08-10T18:22:26.813Z,37.79
2022-08-10T18:24:57.483Z,37.41
2022-08-10T18:27:46.509Z,38.08
2022-08-10T18:30:17.161Z,38.47
2022-08-10T18:32:50.115Z,39.89
2022-08-10T18:35:21.191Z,40.83
2022-08-10T18:37:53.058Z,41.81
2022-08-10T18:40:21.584Z,41.90
2022-08-10T18:44:02.824Z,42.63
2022-08-10T18:45:57.779Z,44.25
2022-08-10T18:48:34.269Z,43.48
2022-08-10T18:51:07.393Z,45.26
2022-08-10T18:53:38.266Z,45.07
2022-08-10T18:56:17.221Z,46.46
2022-08-10T18:59:02.732Z,45.98
2022-08-10T19:01:49.625Z,46.29
2022-08-10T19:04:28.623Z,45.55
2022-08-10T19:07:27.554Z,45.75
2022-08-10T19:10:09.432Z,46.47
2022-08-10T19:12:45.631Z,46.34
2022-08-10T19:15:24.170Z,46.82
2022-08-10T19:18:07.708Z,46.79
2022-08-10T19:20:42.361Z,46.30
2022-08-10T19:23:24.745Z,46.23
2022-08-10T19:26:38.185Z,45.75
2022-08-10T19:28:59.237Z,46.46
2022-08-10T19:31:44.138Z,46.52
2022-08-10T19:34:34.799Z,47.34
2022-08-10T19:37:15.773Z,47.67
2022-08-10T19:39:59.849Z,47.82
2022-08-10T19:42:34.943Z,47.75
2022-08-10T19:45:56.133Z,48.33
2022-08-10T19:48:12.964Z,48.62
2022-08-10T19:50:45.657Z,49.40
2022-08-10T19:53:24.962Z,49.71
2022-08-10T19:56:18.770Z,49.94
2022-08-10T19:59:11.381Z,49.99
2022-08-10T20:01:55.138Z,50.29
2022-08-10T20:04:31.956Z,50.02
2022-08-10T20:07:12.519Z,50.60
2022-08-10T20:09:48.395Z,49.95
2022-08-10T20:12:30.802Z,50.09
2022-08-10T20:15:05.038Z,48.97
2022-08-10T20:17:51.062Z,49.29
2022-08-10T20:20:30.991Z,49.72
2022-08-10T20:23:09.510Z,49.87
2022-08-10T20:25:37.845Z,50.60
2022-08-10T20:28:16.288Z,50.86
2022-08-10T20:30:47.918Z,50.48
2022-08-10T20:33:25.967Z,51.78
2022-08-10T20:36:03.565Z,52.13
2022-08-10T20:38:40.057Z,51.43
2022-08-10T20:41:19.127Z,50.49
2022-08-10T20:44:03.571Z,51.35
2022-08-10T20:46:38.954Z,51.04
2022-08-10T20:49:20.909Z,51.74
2022-08-10T20:51:57.557Z,51.20
2022-08-10T20:54:32.684Z,52.00
2022-08-10T20:58:04.053Z,51.93
2022-08-10T21:00:13.429Z,52.42
2022-08-10T21:02:58.229Z,52.88
2022-08-10T21:05:34.535Z,53.26
2022-08-10T21:08:17.456Z,53.00
2022-08-10T21:10:59.909Z,52.97
2022-08-10T21:13:44.396Z,52.77
2022-08-10T21:16:37.379Z,53.08
2022-08-10T21:19:36.049Z,52.97
2022-08-10T21:22:13.153Z,53.70
2022-08-10T21:24:52.301Z,53.69
2022-08-10T21:28:16.813Z,53.53
2022-08-10T21:31:39.134Z,53.46
2022-08-10T21:34:31.678Z,55.01
2022-08-10T21:37:08.252Z,55.39
2022-08-10T21:39:52.489Z,55.48
2022-08-10T21:42:54.350Z,55.55
2022-08-10T21:45:58.976Z,55.90
2022-08-10T21:48:57.267Z,56.02
2022-08-10T21:52:01.758Z,55.25
2022-08-10T21:54:58.838Z,55.30
2022-08-10T21:57:48.581Z,55.10
2022-08-10T22:00:35.833Z,55.68
2022-08-10T22:03:23.348Z,55.91
2022-08-10T22:06:14.425Z,55.27
2022-08-10T22:09:04.774Z,55.45
2022-08-10T22:11:53.729Z,55.73
2022-08-10T22:14:44.493Z,55.95
2022-08-10T22:18:00.222Z,56.37
2022-08-10T22:20:44.465Z,55.74
2022-08-10T22:23:48.093Z,55.34
2022-08-10T22:27:00.466Z,55.92
2022-08-10T22:29:52.653Z,56.57
2022-08-10T22:32:49.164Z,57.48
2022-08-10T22:35:57.077Z,58.15
2022-08-10T22:38:57.175Z,57.77
2022-08-10T22:41:53.001Z,57.50
2022-08-10T22:44:41.034Z,57.41
2022-08-10T22:47:30.334Z,57.11
2022-08-10T22:50:03.451Z,56.37
2022-08-10T22:53:01.767Z,57.13
2022-08-10T22:55:53.421Z,57.59
2022-08-10T22:58:40.956Z,57.56
2022-08-10T23:01:36.172Z,57.02
2022-08-10T23:04:09.419Z,57.05
2022-08-10T23:06:40.875Z,57.00
2022-08-10T23:09:13.545Z,57.08
2022-08-10T23:11:45.106Z,56.98
2022-08-10T23:14:22.037Z,57.07
2022-08-10T23:17:12.020Z,57.29
2022-08-10T23:19:45.616Z,57.53
2022-08-10T23:22:16.106Z,57.63
2022-08-10T23:24:47.678Z,58.12
2022-08-10T23:27:39.058Z,57.57
2022-08-10T23:30:18.039Z,57.47
2022-08-10T23:32:48.945Z,57.68
2022-08-10T23:36:30.827Z,57.47
2022-08-10T23:38:10.227Z,57.86
2022-08-10T23:40:39.113Z,58.01
2022-08-10T23:43:08.089Z,57.67
2022-08-10T23:45:53.080Z,58.08
2022-08-10T23:48:24.954Z,59.28
2022-08-10T23:50:58.364Z,59.01
2022-08-10T23:53:31.255Z,58.76
2022-08-10T23:56:07.585Z,58.74
2022-08-10T23:58:40.842Z,58.55
